This is the latest recevied weather packets stored in our database for station/object KB1JDX. If no packets are shown the sender has not sent any weather packets the latest 10 day(s).
| Time | Temp. | Humidity | Pressure | Rain* | Wind** | Luminosity | Snow |
|---|---|---|---|---|---|---|---|
| 1787797026 | 18.89° C | 100% | 1017.9 hPa | 0 mm | 0 m/s | - | - |
| 1787794695 | 19.44° C | 100% | 1017.7 hPa | 0 mm | 0 m/s | - | - |
| 1787793426 | 20° C | 100% | 1017.7 hPa | 0 mm | 0 m/s | - | - |
| 1787792294 | 20.56° C | 100% | 1017.6 hPa | 0 mm | 0 m/s | - | - |
| 1787789826 | 21.67° C | 100% | 1017.4 hPa | 0 mm | 0 m/s | - | - |
| 1787786294 | 23.33° C | 33% | 1016.8 hPa | 0 mm | 0 m/s | - | - |
| 1787786226 | 23.33° C | 33% | 1016.8 hPa | 0 mm | 0 m/s | - | - |
| 1787783895 | 24.44° C | 44% | 1016.6 hPa | 0 mm | 0 m/s | - | - |
| 1787782694 | 25° C | 48% | 1016.7 hPa | 0 mm | 0 m/s | - | - |
| 1787782626 | 25° C | 48% | 1016.7 hPa | 0 mm | 0 m/s | - | - |
| 1787780295 | 25.56° C | 52% | 1016.6 hPa | 0 mm | 0 m/s | - | - |
| 1787779094 | 26.11° C | 53% | 1016.5 hPa | 0 mm | 0 m/s | - | - |
| 1787779026 | 26.11° C | 53% | 1016.5 hPa | 0 mm | 0 m/s | - | - |
| 1787777894 | 26.11° C | 54% | 1016.4 hPa | 0 mm | 0 m/s | - | - |
| 1787776694 | 27.22° C | 52% | 1016.5 hPa | 0 mm | 0 m/s | - | - |
| 1787775426 | 27.78° C | 49% | 1016.6 hPa | 0 mm | 0 m/s | - | - |
| 1787774294 | 27.22° C | 49% | 1016.5 hPa | 0 mm | 0 m/s | - | - |
| 1787773094 | 26.67° C | 50% | 1016.6 hPa | 0 mm | 0 m/s | - | - |
| 1787771894 | 27.22° C | 51% | 1016.8 hPa | 0 mm | 0 m/s | - | - |
| 1787771826 | 27.22° C | 51% | 1016.8 hPa | 0 mm | 0 m/s | - | - |
| 1787769493 | 26.67° C | 50% | 1017.1 hPa | 0 mm | 0 m/s | - | - |
| 1787768294 | 26.67° C | 50% | 1017.3 hPa | 0 mm | 0 m/s | - | - |
| 1787768226 | 26.67° C | 51% | 1017.2 hPa | 0 mm | 0 m/s | - | - |
| 1787767096 | 27.22° C | 50% | 1017.2 hPa | 0 mm | 0 m/s | - | - |
| 1787765894 | 27.22° C | 48% | 1017.2 hPa | 0 mm | 0 m/s | - | - |
* Rain latest hour (hover to see other rain measurements)
** Current wind speed in m/s (hover to see current wind gust speed)